createdAt,value
2018-10-04T00:05:35.045Z,26.4
2018-10-04T00:08:31.985Z,26.4
2018-10-04T00:17:23.047Z,26.5
2018-10-04T00:20:19.950Z,26.5
2018-10-04T00:23:17.092Z,26.6
2018-10-04T00:26:13.935Z,26.6
2018-10-04T00:35:05.017Z,26.7
2018-10-04T00:38:01.992Z,26.7
2018-10-04T00:40:59.067Z,26.7
2018-10-04T00:43:56.029Z,26.8
2018-10-04T00:46:53.084Z,26.8
2018-10-04T00:49:50.090Z,26.8
2018-10-04T00:52:47.060Z,26.8
2018-10-04T00:55:44.064Z,26.8
2018-10-04T01:01:38.105Z,26.9
2018-10-04T01:04:35.068Z,27
2018-10-04T01:07:32.080Z,27
2018-10-04T01:13:26.141Z,27
2018-10-04T01:16:23.145Z,27.1
2018-10-04T01:22:17.085Z,27.2
2018-10-04T01:25:14.091Z,27.3
2018-10-04T01:28:11.091Z,27.3
2018-10-04T01:39:59.403Z,27.6
2018-10-04T01:42:56.082Z,27.7
2018-10-04T01:48:50.146Z,27.7
2018-10-04T01:51:47.116Z,27.7
2018-10-04T01:57:41.179Z,27.8
2018-10-04T02:00:38.144Z,27.9
2018-10-04T02:03:35.126Z,27.9
2018-10-04T02:06:32.204Z,28
2018-10-04T02:12:26.145Z,28.1
2018-10-04T02:18:20.194Z,28.2
2018-10-04T02:21:17.165Z,28.2
2018-10-04T02:27:11.258Z,28.2
2018-10-04T02:30:08.165Z,28.2
2018-10-04T02:33:05.217Z,28.4
2018-10-04T02:36:02.237Z,28.6
2018-10-04T02:38:59.248Z,28.7
2018-10-04T02:41:56.228Z,28.9
2018-10-04T02:44:53.206Z,29
2018-10-04T02:50:47.201Z,29.2
2018-10-04T02:53:44.353Z,29.2
2018-10-04T02:56:41.228Z,29.2
2018-10-04T02:59:38.203Z,29.4
2018-10-04T03:02:35.650Z,29.4
2018-10-04T03:05:32.223Z,29.3
2018-10-04T03:08:29.257Z,29.2
2018-10-04T03:11:26.292Z,29.2
2018-10-04T03:14:23.265Z,29.1
2018-10-04T03:17:20.285Z,29.2
2018-10-04T03:20:17.360Z,29.1
2018-10-04T03:23:14.214Z,29.1
2018-10-04T03:26:11.256Z,29.2
2018-10-04T03:29:08.291Z,29.2
2018-10-04T03:32:05.259Z,29.1
2018-10-04T03:35:02.698Z,29.1
2018-10-04T03:37:59.321Z,29
2018-10-04T03:40:56.248Z,29
2018-10-04T03:43:53.280Z,29
2018-10-04T03:52:44.529Z,29
2018-10-04T03:55:41.303Z,29.1
2018-10-04T04:01:35.784Z,29.2
2018-10-04T04:04:32.266Z,29.2
2018-10-04T04:07:29.364Z,29.2
2018-10-04T04:10:26.335Z,29.3
2018-10-04T04:13:23.316Z,29.3
2018-10-04T04:16:20.320Z,29.4
2018-10-04T04:19:17.363Z,29.5
2018-10-04T04:22:14.417Z,29.5
2018-10-04T04:25:11.427Z,29.5
2018-10-04T04:28:08.334Z,29.6
2018-10-04T04:34:02.606Z,29.5
2018-10-04T04:36:59.345Z,29.5
2018-10-04T04:39:56.526Z,29.5
2018-10-04T04:42:53.366Z,29.5
2018-10-04T04:45:50.574Z,29.5
2018-10-04T04:48:47.355Z,29.5
2018-10-04T04:51:44.431Z,29.5
2018-10-04T04:57:38.438Z,29.6
2018-10-04T05:03:32.400Z,29.7
2018-10-04T05:06:29.506Z,29.7
2018-10-04T05:09:26.617Z,29.8
2018-10-04T05:12:23.402Z,29.8
2018-10-04T05:15:20.441Z,29.8
2018-10-04T05:21:14.453Z,29.8
2018-10-04T05:24:11.390Z,29.8
2018-10-04T05:27:08.472Z,29.9
2018-10-04T05:30:05.463Z,29.9
2018-10-04T05:35:59.508Z,29.9
2018-10-04T05:38:56.450Z,29.9
2018-10-04T05:41:53.479Z,29.9
2018-10-04T05:44:50.456Z,29.9
2018-10-04T05:47:47.458Z,30
2018-10-04T05:50:44.416Z,30.1
2018-10-04T05:56:38.508Z,30.3
2018-10-04T05:59:35.479Z,30.4
2018-10-04T06:02:32.691Z,30.7
2018-10-04T06:05:29.548Z,30.8
2018-10-04T06:08:27.063Z,30.8
2018-10-04T06:11:23.470Z,30.9
2018-10-04T06:14:20.522Z,30.8
2018-10-04T06:17:17.499Z,30.9
2018-10-04T06:20:14.569Z,30.8
2018-10-04T06:23:11.506Z,30.8
2018-10-04T06:26:08.517Z,30.8
2018-10-04T06:29:05.481Z,30.8
2018-10-04T06:32:02.569Z,30.7
2018-10-04T06:34:59.547Z,30.6
2018-10-04T06:37:56.577Z,30.7
2018-10-04T06:40:53.498Z,30.7
2018-10-04T06:43:50.542Z,30.6
2018-10-04T06:46:47.499Z,30.6
2018-10-04T06:49:44.517Z,30.6
2018-10-04T06:52:41.575Z,30.6
2018-10-04T06:55:38.630Z,30.6
2018-10-04T07:01:32.629Z,30.5
2018-10-04T07:04:29.732Z,30.5
2018-10-04T07:07:26.655Z,30.4
2018-10-04T07:10:23.510Z,30.5
2018-10-04T07:13:20.761Z,30.5
2018-10-04T07:19:15.046Z,30.4
2018-10-04T07:22:11.641Z,30.5
2018-10-04T07:28:05.605Z,30.7
2018-10-04T07:31:02.600Z,30.8
2018-10-04T07:33:59.672Z,30.8
2018-10-04T07:36:56.631Z,31
2018-10-04T07:39:53.701Z,31
2018-10-04T07:42:50.563Z,31
2018-10-04T07:45:47.707Z,31
2018-10-04T07:48:44.642Z,30.9
2018-10-04T07:51:41.932Z,30.9
2018-10-04T07:54:38.654Z,30.9
2018-10-04T08:00:32.723Z,31.6
2018-10-04T08:09:23.759Z,31.4
2018-10-04T08:15:17.772Z,31.2
2018-10-04T08:18:14.744Z,31.4
2018-10-04T08:24:08.745Z,31.4
2018-10-04T08:27:05.780Z,31.5
2018-10-04T08:30:02.761Z,31.4
2018-10-04T08:32:59.738Z,31.6
2018-10-04T08:35:56.729Z,31.6
2018-10-04T08:41:50.748Z,31.9
2018-10-04T08:47:44.756Z,31.9
2018-10-04T08:50:41.746Z,31.9
2018-10-04T08:59:32.809Z,32.2
2018-10-04T09:02:29.710Z,32.2
2018-10-04T09:08:23.820Z,32.1
2018-10-04T09:11:20.765Z,32.2
2018-10-04T09:17:14.819Z,32.4
2018-10-04T09:29:02.895Z,32.4
2018-10-04T09:34:56.874Z,32.3
2018-10-04T09:37:53.769Z,32.2
2018-10-04T09:43:47.825Z,32.2
2018-10-04T09:46:44.818Z,32.1
2018-10-04T09:49:41.844Z,32
2018-10-04T09:52:38.849Z,32.1
2018-10-04T09:55:36.218Z,32.1
2018-10-04T09:58:32.845Z,32
2018-10-04T10:04:26.897Z,31.8
2018-10-04T10:07:23.868Z,31.8
2018-10-04T10:10:20.936Z,31.7
2018-10-04T10:13:17.858Z,31.6
2018-10-04T10:16:14.931Z,31.6
2018-10-04T10:19:11.866Z,31.5
2018-10-04T10:25:05.913Z,31.3
2018-10-04T10:28:02.854Z,31.2
2018-10-04T10:30:59.907Z,31.1
2018-10-04T10:33:56.916Z,31
2018-10-04T10:36:53.997Z,31
2018-10-04T10:39:50.922Z,30.8
2018-10-04T10:42:47.999Z,30.8
2018-10-04T10:45:44.915Z,30.7
2018-10-04T10:48:41.981Z,30.6
2018-10-04T10:51:38.912Z,30.6
2018-10-04T10:54:36.172Z,30.5
2018-10-04T11:00:30.103Z,30.5
2018-10-04T11:06:24.013Z,30.3
2018-10-04T11:09:20.981Z,30.4
2018-10-04T11:12:17.957Z,30.3
2018-10-04T11:18:11.987Z,30.3
2018-10-04T11:21:08.925Z,30.2
2018-10-04T11:24:05.970Z,30.2
2018-10-04T11:27:02.935Z,30.2
2018-10-04T11:30:00.023Z,30.2
2018-10-04T11:32:57.022Z,30.1
2018-10-04T11:35:54.033Z,30.1
2018-10-04T11:41:48.067Z,30
2018-10-04T11:47:42.065Z,30
2018-10-04T11:50:39.006Z,30
2018-10-04T11:53:36.078Z,30
2018-10-04T11:56:33.042Z,30
2018-10-04T12:05:24.095Z,29.9
2018-10-04T12:08:21.051Z,29.9
2018-10-04T12:11:18.066Z,29.9
2018-10-04T12:14:15.020Z,29.9
2018-10-04T12:17:12.147Z,29.9
2018-10-04T12:20:09.102Z,29.8
2018-10-04T12:23:06.119Z,29.8
2018-10-04T12:29:00.162Z,29.8
2018-10-04T12:31:57.067Z,29.8
2018-10-04T12:37:51.154Z,29.8
2018-10-04T12:40:48.276Z,29.7
2018-10-04T12:43:45.145Z,29.6
2018-10-04T12:46:42.051Z,29.2
2018-10-04T12:49:39.095Z,28.8
2018-10-04T12:55:33.123Z,28.2
2018-10-04T12:58:30.061Z,28
2018-10-04T13:01:27.146Z,27.9
2018-10-04T13:19:09.286Z,27
2018-10-04T13:33:54.400Z,27
2018-10-04T13:39:48.362Z,27
2018-10-04T13:45:42.250Z,27
2018-10-04T13:48:39.172Z,27
2018-10-04T13:57:30.383Z,27
2018-10-04T14:00:27.206Z,27
2018-10-04T14:03:24.342Z,27
2018-10-04T14:06:21.332Z,26.9
2018-10-04T14:09:18.394Z,26.9
2018-10-04T14:12:15.229Z,26.8
2018-10-04T14:15:12.282Z,26.8
2018-10-04T14:21:06.242Z,26.8
2018-10-04T14:24:03.209Z,26.8
2018-10-04T14:27:00.284Z,26.8
2018-10-04T14:29:57.305Z,26.8
2018-10-04T14:32:54.537Z,26.8
2018-10-04T14:35:51.313Z,26.8
2018-10-04T14:38:48.480Z,26.8
2018-10-04T14:41:45.276Z,26.8
2018-10-04T14:44:42.304Z,26.8
2018-10-04T14:47:39.319Z,26.7
2018-10-04T14:50:36.355Z,26.7
2018-10-04T14:53:33.329Z,26.8
2018-10-04T14:56:30.335Z,26.8
2018-10-04T15:02:24.596Z,26.8
2018-10-04T15:05:21.292Z,26.8
2018-10-04T15:08:18.336Z,26.7
2018-10-04T15:11:15.269Z,26.6
2018-10-04T15:14:12.299Z,26.6
2018-10-04T15:17:09.301Z,26.6
2018-10-04T15:20:06.309Z,26.5
2018-10-04T15:23:03.348Z,26.5
2018-10-04T15:26:00.356Z,26.4
2018-10-04T15:28:57.317Z,26.4
2018-10-04T15:31:54.387Z,26.4
2018-10-04T15:34:51.393Z,26.4
2018-10-04T15:37:48.531Z,26.5
2018-10-04T15:40:45.389Z,26.5
2018-10-04T15:43:42.443Z,26.4
2018-10-04T15:46:39.333Z,26.4
2018-10-04T15:49:36.429Z,26.4
2018-10-04T15:52:33.374Z,26.4
2018-10-04T15:55:30.399Z,26.3
2018-10-04T15:58:27.396Z,26.3
2018-10-04T16:01:24.393Z,26.2
2018-10-04T16:04:21.391Z,26.2
2018-10-04T16:07:18.432Z,26.2
2018-10-04T16:10:15.896Z,26.2
2018-10-04T16:13:12.452Z,26.3
2018-10-04T16:16:09.419Z,26.3
2018-10-04T16:19:06.544Z,26.3
2018-10-04T16:22:03.429Z,26.3
2018-10-04T16:25:00.413Z,26.3
2018-10-04T16:27:57.392Z,26.3
2018-10-04T16:30:54.467Z,26.3
2018-10-04T16:33:51.444Z,26.3
2018-10-04T16:36:48.442Z,26.4
2018-10-04T16:39:45.381Z,26.4
2018-10-04T16:42:42.520Z,26.4
2018-10-04T16:45:39.505Z,26.4
2018-10-04T16:48:37.160Z,26.4
2018-10-04T16:51:33.477Z,26.4
2018-10-04T16:54:30.538Z,26.4
2018-10-04T16:57:27.475Z,26.4
2018-10-04T17:00:24.711Z,26.4
2018-10-04T17:03:21.540Z,26.4
2018-10-04T17:06:18.530Z,26.5
2018-10-04T17:09:15.509Z,26.6
2018-10-04T17:12:12.548Z,26.6
2018-10-04T17:15:09.650Z,26.7
2018-10-04T17:18:06.540Z,26.7
2018-10-04T17:21:03.457Z,26.8
2018-10-04T17:24:00.559Z,26.8
2018-10-04T17:26:57.479Z,26.8
2018-10-04T17:29:54.498Z,26.8
2018-10-04T17:32:51.537Z,26.9
2018-10-04T17:35:48.691Z,26.9
2018-10-04T17:38:45.580Z,26.8
2018-10-04T17:41:42.675Z,26.8
2018-10-04T17:44:39.491Z,26.8
2018-10-04T17:47:36.672Z,26.8
2018-10-04T17:50:33.582Z,26.8
2018-10-04T17:53:30.565Z,26.8
2018-10-04T17:56:27.534Z,26.8
2018-10-04T17:59:24.939Z,26.8
2018-10-04T18:02:21.651Z,26.8
2018-10-04T18:05:18.737Z,26.8
2018-10-04T18:08:15.931Z,26.8
2018-10-04T18:11:12.617Z,26.8
2018-10-04T18:14:09.601Z,26.8
2018-10-04T18:17:06.692Z,26.8
2018-10-04T18:20:03.611Z,26.7
2018-10-04T18:23:00.665Z,26.8
2018-10-04T18:25:57.650Z,26.7
2018-10-04T18:28:54.653Z,26.7
2018-10-04T18:31:51.569Z,26.7
2018-10-04T18:34:48.606Z,26.6
2018-10-04T18:37:46.046Z,26.6
2018-10-04T18:40:42.606Z,26.6
2018-10-04T18:43:39.610Z,26.6
2018-10-04T18:46:36.703Z,26.6
2018-10-04T18:52:30.736Z,26.6
2018-10-04T18:58:24.677Z,26.6
2018-10-04T19:01:21.635Z,26.6
2018-10-04T19:04:18.830Z,26.6
2018-10-04T19:07:16.063Z,26.6
2018-10-04T19:10:12.698Z,26.6
2018-10-04T19:13:09.716Z,26.6
2018-10-04T19:16:06.774Z,26.6
2018-10-04T19:19:03.698Z,26.6
2018-10-04T19:24:57.666Z,26.6
2018-10-04T19:27:54.679Z,26.7
2018-10-04T19:30:51.675Z,26.6
2018-10-04T19:33:48.676Z,26.6
2018-10-04T19:36:46.095Z,26.6
2018-10-04T19:39:42.682Z,26.6
2018-10-04T19:42:39.865Z,26.6
2018-10-04T19:45:36.710Z,26.6
2018-10-04T19:48:33.757Z,26.6
2018-10-04T19:51:30.723Z,26.6
2018-10-04T19:54:27.755Z,26.6
2018-10-04T19:57:25.150Z,26.6
2018-10-04T20:00:21.723Z,26.5
2018-10-04T20:03:18.797Z,26.5
2018-10-04T20:06:16.053Z,26.5
2018-10-04T20:09:12.774Z,26.5
2018-10-04T20:12:09.797Z,26.5
2018-10-04T20:15:06.690Z,26.5
2018-10-04T20:18:03.833Z,26.5
2018-10-04T20:21:00.781Z,26.5
2018-10-04T20:23:57.841Z,26.5
2018-10-04T20:26:54.775Z,26.5
2018-10-04T20:29:51.847Z,26.5
2018-10-04T20:32:48.747Z,26.6
2018-10-04T20:35:46.418Z,26.6
2018-10-04T20:38:42.787Z,26.6
2018-10-04T20:41:39.807Z,26.6
2018-10-04T20:44:36.753Z,26.6
2018-10-04T20:47:33.840Z,26.6
2018-10-04T20:50:30.819Z,26.5
2018-10-04T20:53:27.828Z,26.5
2018-10-04T20:56:24.798Z,26.5
2018-10-04T20:59:21.941Z,26.5
2018-10-04T21:02:18.889Z,26.5
2018-10-04T21:05:15.922Z,26.5
2018-10-04T21:11:09.853Z,26.4
2018-10-04T21:14:06.887Z,26.5
2018-10-04T21:17:03.906Z,26.4
2018-10-04T21:20:00.843Z,26.4
2018-10-04T21:22:57.997Z,26.4
2018-10-04T21:28:51.893Z,26.4
2018-10-04T21:31:48.782Z,26.4
2018-10-04T21:34:45.882Z,26.4
2018-10-04T21:37:42.871Z,26.4
2018-10-04T21:40:39.900Z,26.4
2018-10-04T21:43:36.848Z,26.4
2018-10-04T21:46:33.922Z,26.4
2018-10-04T21:49:30.932Z,26.4
2018-10-04T21:52:27.869Z,26.4
2018-10-04T21:55:24.841Z,26.4
2018-10-04T21:58:22.090Z,26.4
2018-10-04T22:01:18.831Z,26.4
2018-10-04T22:04:16.283Z,26.4
2018-10-04T22:07:12.900Z,26.5
2018-10-04T22:10:10.082Z,26.4
2018-10-04T22:13:06.910Z,26.5
2018-10-04T22:16:03.918Z,26.5
2018-10-04T22:21:57.935Z,26.5
2018-10-04T22:24:54.845Z,26.5
2018-10-04T22:27:51.877Z,26.5
2018-10-04T22:30:48.890Z,26.5
2018-10-04T22:33:46.120Z,26.5
2018-10-04T22:36:42.872Z,26.5
2018-10-04T22:39:39.909Z,26.4
2018-10-04T22:45:33.996Z,26.4
2018-10-04T22:48:30.906Z,26.4
2018-10-04T22:51:27.936Z,26.4
2018-10-04T22:54:24.975Z,26.4
2018-10-04T22:57:21.986Z,26.3
2018-10-04T23:00:18.867Z,26.3
2018-10-04T23:03:16.336Z,26.3
2018-10-04T23:06:12.935Z,26.4
2018-10-04T23:09:10.118Z,26.4
2018-10-04T23:12:06.922Z,26.3
2018-10-04T23:18:00.984Z,26.3
2018-10-04T23:20:57.971Z,26.3
2018-10-04T23:23:55.038Z,26.3
2018-10-04T23:29:49.253Z,26.4
2018-10-04T23:32:46.039Z,26.4
2018-10-04T23:35:43.046Z,26.4
2018-10-04T23:38:39.997Z,26.4
2018-10-04T23:41:37.084Z,26.4
2018-10-04T23:44:34.098Z,26.4
2018-10-04T23:50:28.184Z,26.5
2018-10-04T23:53:25.003Z,26.5
2018-10-04T23:56:22.099Z,26.6
2018-10-04T23:59:19.024Z,26.6
